Flight Track Log - Related Links

Times and Time Zones

All times are in EDT time to prevent confusion due to time zone crossing. See the ASQ4406 flight status page for this flight to view local times or setup timezone preferences in your user account.

Time Position Orientation Groundspeed Altitude Reporting Facility
EDT Latitude Longitude Course Direction KTS MPH feet Rate Location/Type
Mon 07:38:42 PM 29.9614 -95.3411 206° Southwest 146 168 900  Level Houston Center
Mon 07:39:30 PM 29.9333 -95.3083 135° Southeast 195 224 1,800 1,435 Climbing Houston Center
Mon 07:40:14 PM 29.9053 -95.2725 132° Southeast 218 251 3,100 2,129 Climbing Houston Center
Mon 07:40:32 PM 29.8883 -95.2536 136° Southeast 257 296 4,000 2,129 Climbing Houston Center
Mon 07:41:00 PM 29.7436 -95.4605 208° Southwest  Level FlightAware Approximate
Mon 07:41:16 PM 29.8583 -95.2131 130° Southeast 237 273 5,300  Level Houston Center
Mon 07:41:39 PM 29.8356 -95.1831 131° Southeast 259 298 6,300 2,129 Climbing Houston Center
Mon 07:42:00 PM 29.6661 -95.5087 209° Southwest  Level FlightAware Approximate
Mon 07:42:18 PM 29.8111 -95.1500 130° Southeast 256 295 7,500  Level Houston Center
Mon 07:42:34 PM 29.7817 -95.1439 170° South 263 303 8,000 1,548 Climbing Houston Center
Mon 07:43:00 PM 29.5885 -95.5564 206° Southwest  Level FlightAware Approximate
Mon 07:43:20 PM 29.7375 -95.1389 174° South 264 304 9,100  Level Houston Center
Mon 07:44:00 PM 29.5137 -95.5980 206° Southwest  Level FlightAware Approximate
Mon 07:44:22 PM 29.6625 -95.1958 213° Southwest 281 323 10,600  Level Houston Center
Mon 07:45:24 PM 29.6036 -95.2692 227° Southwest 316 364 11,200 871 Climbing Houston Center
Mon 07:46:26 PM 29.5411 -95.3486 228° Southwest 334 384 12,400 1,073 Climbing Houston Center
Mon 07:47:27 PM 29.4778 -95.4303 228° Southwest 341 392 13,400 1,024 Climbing Houston Center
Mon 07:48:29 PM 29.4114 -95.5150 228° Southwest 353 406 14,500 1,210 Climbing Houston Center
Mon 07:49:31 PM 29.3269 -95.6167 226° Southwest 364 419 15,900 1,258 Climbing Houston Center
Mon 07:50:33 PM 29.2569 -95.7006 226° Southwest 365 420 17,100 1,161 Climbing Houston Center
Mon 07:51:35 PM 29.1872 -95.7861 227° Southwest 367 422 18,300 1,161 Climbing Houston Center
Mon 07:52:37 PM 29.1169 -95.8708 226° Southwest 368 423 19,500 1,171 Climbing Houston Center
Mon 07:53:38 PM 29.0444 -95.9569 226° Southwest 375 432 20,700 1,171 Climbing Houston Center
Mon 07:54:40 PM 28.9625 -96.0567 227° Southwest 371 427 21,900 629 Climbing Houston Center
Mon 07:55:42 PM 28.8881 -96.1458 226° Southwest 385 443 22,000 48 Climbing Houston Center
Mon 07:56:44 PM 28.8103 -96.2403 227° Southwest 403 464 22,000  Level Houston Center
Mon 07:57:46 PM 28.7297 -96.3356 226° Southwest 413 475 22,000 -146 Level Houston Center
Mon 07:58:47 PM 28.6475 -96.4344 227° Southwest 424 488 21,700 -1,171 Descending Houston Center
Mon 07:59:49 PM 28.5686 -96.5289 226° Southwest 413 475 19,600 -1,935 Descending Houston Center
Mon 08:00:51 PM 28.4894 -96.6219 226° Southwest 408 470 17,700 -1,839 Descending Houston Center
Mon 08:01:53 PM 28.4133 -96.7144 227° Southwest 406 467 15,800 -2,129 Descending Houston Center
Mon 08:02:55 PM 28.3231 -96.8231 227° Southwest 400 460 13,300 -1,935 Descending Houston Center
Mon 08:03:57 PM 28.2506 -96.9069 226° Southwest 386 444 11,800 -1,448 Descending Houston Center
Mon 08:04:51 PM 28.2106 -96.9956 243° Southwest 327 376 10,500 -1,111 Descending Houston Center
Mon 08:05:45 PM 28.1767 -97.0694 243° Southwest 285 328 9,800 -870 Descending Houston Center
Mon 08:06:00 PM 28.1700 -97.0839 242° Southwest 303 349 9,500 -1,013 Descending Houston Center
Mon 08:07:02 PM 28.1344 -97.1608 242° Southwest 281 323 8,500 -1,053 Descending Houston Center
Mon 08:08:11 PM 28.0886 -97.2647 243° Southwest 285 328 7,200 -1,027 Descending Houston Center
Mon 08:08:53 PM 28.0667 -97.3128 243° Southwest 274 315 6,600 -990 Descending Houston Center
Mon 08:09:54 PM 28.0333 -97.3933 245° Southwest 266 306 5,500 -750 Descending Houston Center
Mon 08:11:09 PM 27.9961 -97.4853 245° Southwest 266 306 4,900 -613 Descending Houston Center
Mon 08:12:11 PM 27.9653 -97.5600 245° Southwest 264 304 4,100 -916 Descending Houston Center
Mon 08:13:20 PM 27.9258 -97.6450 242° Southwest 241 277 2,900 -823 Descending Houston Center
Mon 08:14:15 PM 27.8781 -97.6319 166° South 243 280 2,400 -545 Descending Houston Center

Login

Don't have an account? Register now (free) for customized features, flight alerts, and more!